createdAt,value
2022-11-10T00:01:26.443Z,8.55
2022-11-10T00:06:23.158Z,8.35
2022-11-10T00:11:20.806Z,10.73
2022-11-10T00:16:38.142Z,12.88
2022-11-10T00:21:36.641Z,11.52
2022-11-10T00:26:33.456Z,9.48
2022-11-10T00:31:29.964Z,12.60
2022-11-10T00:36:26.702Z,8.73
2022-11-10T00:41:23.581Z,11.50
2022-11-10T00:46:23.213Z,11.05
2022-11-10T00:51:29.237Z,11.48
2022-11-10T00:56:27.885Z,9.70
2022-11-10T01:01:25.570Z,8.80
2022-11-10T01:06:22.427Z,11.88
2022-11-10T01:11:22.091Z,11.30
2022-11-10T01:16:29.604Z,13.25
2022-11-10T01:21:26.928Z,11.75
2022-11-10T01:26:23.941Z,13.23
2022-11-10T01:31:21.739Z,10.75
2022-11-10T01:36:18.281Z,9.48
2022-11-10T01:41:15.268Z,8.32
2022-11-10T01:46:13.332Z,11.43
2022-11-10T01:51:30.154Z,11.20
2022-11-10T01:56:29.460Z,12.23
2022-11-10T02:01:28.444Z,9.77
2022-11-10T02:06:28.633Z,8.80
2022-11-10T02:11:26.001Z,10.02
2022-11-10T02:16:24.771Z,10.32
2022-11-10T02:21:21.389Z,11.20
2022-11-10T02:26:26.244Z,9.10
2022-11-10T02:31:22.937Z,13.98
2022-11-10T02:41:15.882Z,8.57
2022-11-10T02:46:12.403Z,9.77
2022-11-10T02:51:09.794Z,9.32
2022-11-10T02:56:08.412Z,8.32
2022-11-10T03:01:06.844Z,11.70
2022-11-10T03:06:04.691Z,12.23
2022-11-10T03:11:01.269Z,12.73
2022-11-10T03:16:00.033Z,10.27
2022-11-10T03:20:56.623Z,15.48
2022-11-10T03:25:53.194Z,10.73
2022-11-10T03:30:52.651Z,14.30
2022-11-10T03:35:49.198Z,12.25
2022-11-10T03:41:12.439Z,17.20
2022-11-10T03:46:04.438Z,11.95
2022-11-10T03:51:01.079Z,15.02
2022-11-10T03:56:01.097Z,13.35
2022-11-10T04:01:18.246Z,14.57
2022-11-10T04:06:43.373Z,13.00
2022-11-10T04:11:58.807Z,14.75
2022-11-10T04:16:55.456Z,14.43
2022-11-10T04:21:52.239Z,13.57
2022-11-10T04:31:46.254Z,18.70
2022-11-10T04:36:43.649Z,19.90
2022-11-10T04:41:40.270Z,18.05
2022-11-10T04:46:39.273Z,21.13
2022-11-10T04:51:40.414Z,23.00
2022-11-10T04:56:37.233Z,22.50
2022-11-10T05:06:30.366Z,21.13
2022-11-10T05:16:30.996Z,24.92
2022-11-10T05:21:34.350Z,22.23
2022-11-10T05:26:33.493Z,21.48
2022-11-10T05:31:39.787Z,22.92
2022-11-10T05:36:37.006Z,21.50
2022-11-10T05:41:42.827Z,21.55
2022-11-10T05:46:39.518Z,35.85
